Bushmills, United Kingdom
Current Conditions -  °F | °C
As of 6:50 AM on Tuesday 21 Oct 2014 (Local Time) from EGPI Reporting Station
Rain Showers Rain Showers  
Wind Chill: 38°   Ceiling: Unl
Heat Index: 48°   Visibility: 4mi
Dew Point: 43°   Wind: 40mph
Humidity: 82%   Direction: 310°NW
Pressure: 29.32"   Gusts: 58mph
Location:  55.2°N, 6.52°W
Report Text: EGPI 210550Z AUTO 31035G50KT 280V340 7000 -SHRA NCD 09/06 Q0993
Loading
Personal Weather Stations






























Interactive Weather Map New forecast layout! Learn more

10-Day Weather Forecast

Advertisements
Track Severe Weather on mobile